sensor_id;sensor_type;location;lat;lon;timestamp;temperature;humidity
62555;DHT22;48610;52.144;8.624;2024-02-23T00:02:20;9.50;99.90
62555;DHT22;48610;52.144;8.624;2024-02-23T00:05:21;9.50;99.90
62555;DHT22;48610;52.144;8.624;2024-02-23T00:08:21;9.50;99.90
62555;DHT22;48610;52.144;8.624;2024-02-23T00:11:22;9.50;99.90
62555;DHT22;48610;52.144;8.624;2024-02-23T00:14:22;9.50;99.90
62555;DHT22;48610;52.144;8.624;2024-02-23T00:17:23;9.40;99.90
62555;DHT22;48610;52.144;8.624;2024-02-23T00:20:23;9.30;99.90
62555;DHT22;48610;52.144;8.624;2024-02-23T00:23:24;9.20;99.90
62555;DHT22;48610;52.144;8.624;2024-02-23T00:26:24;9.20;99.90
62555;DHT22;48610;52.144;8.624;2024-02-23T00:29:25;9.10;99.90
62555;DHT22;48610;52.144;8.624;2024-02-23T00:32:25;9.00;99.90
62555;DHT22;48610;52.144;8.624;2024-02-23T00:35:26;8.80;99.90
62555;DHT22;48610;52.144;8.624;2024-02-23T00:38:27;8.50;99.90
62555;DHT22;48610;52.144;8.624;2024-02-23T00:41:27;8.40;99.90
62555;DHT22;48610;52.144;8.624;2024-02-23T00:44:28;8.10;99.90
62555;DHT22;48610;52.144;8.624;2024-02-23T00:47:29;8.00;99.90
62555;DHT22;48610;52.144;8.624;2024-02-23T00:50:29;7.90;99.90
62555;DHT22;48610;52.144;8.624;2024-02-23T00:53:32;7.80;99.90
62555;DHT22;48610;52.144;8.624;2024-02-23T00:56:34;7.80;99.90
62555;DHT22;48610;52.144;8.624;2024-02-23T00:59:35;7.60;99.90
62555;DHT22;48610;52.144;8.624;2024-02-23T01:02:37;7.30;99.90
62555;DHT22;48610;52.144;8.624;2024-02-23T01:05:38;7.10;99.90
62555;DHT22;48610;52.144;8.624;2024-02-23T01:08:39;7.10;99.90
62555;DHT22;48610;52.144;8.624;2024-02-23T01:11:40;6.80;99.90
62555;DHT22;48610;52.144;8.624;2024-02-23T01:14:41;6.80;99.90
62555;DHT22;48610;52.144;8.624;2024-02-23T01:17:41;6.80;99.90
62555;DHT22;48610;52.144;8.624;2024-02-23T01:20:42;6.70;99.90
62555;DHT22;48610;52.144;8.624;2024-02-23T01:23:42;6.60;99.90
62555;DHT22;48610;52.144;8.624;2024-02-23T01:26:43;6.60;99.90
62555;DHT22;48610;52.144;8.624;2024-02-23T01:29:43;6.60;99.90
62555;DHT22;48610;52.144;8.624;2024-02-23T01:32:45;6.60;99.90
62555;DHT22;48610;52.144;8.624;2024-02-23T01:35:46;6.60;99.90
62555;DHT22;48610;52.144;8.624;2024-02-23T01:38:46;6.60;99.90
62555;DHT22;48610;52.144;8.624;2024-02-23T01:41:47;6.70;99.90
62555;DHT22;48610;52.144;8.624;2024-02-23T01:44:47;6.70;99.90
62555;DHT22;48610;52.144;8.624;2024-02-23T01:47:48;6.70;99.90
62555;DHT22;48610;52.144;8.624;2024-02-23T01:50:49;6.70;99.90
62555;DHT22;48610;52.144;8.624;2024-02-23T01:53:49;6.50;99.90
62555;DHT22;48610;52.144;8.624;2024-02-23T01:56:51;6.70;99.90
62555;DHT22;48610;52.144;8.624;2024-02-23T01:59:53;6.60;99.90
62555;DHT22;48610;52.144;8.624;2024-02-23T02:02:54;6.60;99.90
62555;DHT22;48610;52.144;8.624;2024-02-23T02:05:55;6.70;99.90
62555;DHT22;48610;52.144;8.624;2024-02-23T02:08:58;6.70;99.90
62555;DHT22;48610;52.144;8.624;2024-02-23T02:11:59;6.80;99.90
62555;DHT22;48610;52.144;8.624;2024-02-23T02:14:59;6.80;99.90
62555;DHT22;48610;52.144;8.624;2024-02-23T02:18:01;6.70;99.90
62555;DHT22;48610;52.144;8.624;2024-02-23T02:21:02;6.60;99.90
62555;DHT22;48610;52.144;8.624;2024-02-23T02:24:03;6.70;99.90
62555;DHT22;48610;52.144;8.624;2024-02-23T02:27:04;6.80;99.90
62555;DHT22;48610;52.144;8.624;2024-02-23T02:30:07;6.90;99.90
62555;DHT22;48610;52.144;8.624;2024-02-23T02:33:07;6.90;99.90
62555;DHT22;48610;52.144;8.624;2024-02-23T02:36:08;6.80;99.90
62555;DHT22;48610;52.144;8.624;2024-02-23T02:39:08;6.80;99.90
62555;DHT22;48610;52.144;8.624;2024-02-23T02:42:10;6.90;99.90
62555;DHT22;48610;52.144;8.624;2024-02-23T02:45:11;6.90;99.90
62555;DHT22;48610;52.144;8.624;2024-02-23T02:48:11;6.80;99.90
62555;DHT22;48610;52.144;8.624;2024-02-23T02:51:12;6.80;99.90
62555;DHT22;48610;52.144;8.624;2024-02-23T02:54:12;6.80;99.90
62555;DHT22;48610;52.144;8.624;2024-02-23T02:57:14;6.90;99.90
62555;DHT22;48610;52.144;8.624;2024-02-23T03:00:14;6.90;99.90
62555;DHT22;48610;52.144;8.624;2024-02-23T03:03:15;6.80;99.90
62555;DHT22;48610;52.144;8.624;2024-02-23T03:06:15;6.80;99.90
62555;DHT22;48610;52.144;8.624;2024-02-23T03:09:16;6.90;99.90
62555;DHT22;48610;52.144;8.624;2024-02-23T03:12:17;6.90;99.90
62555;DHT22;48610;52.144;8.624;2024-02-23T03:15:17;6.90;99.90
62555;DHT22;48610;52.144;8.624;2024-02-23T03:18:18;6.90;99.90
62555;DHT22;48610;52.144;8.624;2024-02-23T03:21:18;6.90;99.90
62555;DHT22;48610;52.144;8.624;2024-02-23T03:24:19;7.00;99.90
62555;DHT22;48610;52.144;8.624;2024-02-23T03:27:20;6.90;99.90
62555;DHT22;48610;52.144;8.624;2024-02-23T03:30:27;6.90;99.90
62555;DHT22;48610;52.144;8.624;2024-02-23T03:33:27;6.90;99.90
62555;DHT22;48610;52.144;8.624;2024-02-23T03:36:28;6.90;99.90
62555;DHT22;48610;52.144;8.624;2024-02-23T03:39:29;6.90;99.90
62555;DHT22;48610;52.144;8.624;2024-02-23T03:42:30;6.80;99.90
62555;DHT22;48610;52.144;8.624;2024-02-23T03:45:30;7.00;99.90
62555;DHT22;48610;52.144;8.624;2024-02-23T03:48:31;6.90;99.90
62555;DHT22;48610;52.144;8.624;2024-02-23T03:51:32;7.00;99.90
62555;DHT22;48610;52.144;8.624;2024-02-23T03:54:35;7.00;99.90
62555;DHT22;48610;52.144;8.624;2024-02-23T03:57:35;7.10;99.90
62555;DHT22;48610;52.144;8.624;2024-02-23T04:00:36;7.00;99.90
62555;DHT22;48610;52.144;8.624;2024-02-23T04:03:37;7.10;99.90
62555;DHT22;48610;52.144;8.624;2024-02-23T04:06:37;7.00;99.90
62555;DHT22;48610;52.144;8.624;2024-02-23T04:09:38;7.00;99.90
62555;DHT22;48610;52.144;8.624;2024-02-23T04:12:38;7.10;99.90
62555;DHT22;48610;52.144;8.624;2024-02-23T04:15:39;7.00;99.90
62555;DHT22;48610;52.144;8.624;2024-02-23T04:18:40;7.00;99.90
62555;DHT22;48610;52.144;8.624;2024-02-23T04:21:40;6.90;99.90
62555;DHT22;48610;52.144;8.624;2024-02-23T04:24:41;7.00;99.90
62555;DHT22;48610;52.144;8.624;2024-02-23T04:27:42;7.00;99.90
62555;DHT22;48610;52.144;8.624;2024-02-23T04:30:43;6.90;99.90
62555;DHT22;48610;52.144;8.624;2024-02-23T04:33:44;6.90;99.90
62555;DHT22;48610;52.144;8.624;2024-02-23T04:36:44;6.90;99.90
62555;DHT22;48610;52.144;8.624;2024-02-23T04:39:45;7.00;99.90
62555;DHT22;48610;52.144;8.624;2024-02-23T04:42:46;7.00;99.90
62555;DHT22;48610;52.144;8.624;2024-02-23T04:45:48;6.80;99.90
62555;DHT22;48610;52.144;8.624;2024-02-23T04:48:49;6.90;99.90
62555;DHT22;48610;52.144;8.624;2024-02-23T04:51:49;6.80;99.90
62555;DHT22;48610;52.144;8.624;2024-02-23T04:54:50;6.70;99.90
62555;DHT22;48610;52.144;8.624;2024-02-23T04:57:51;6.90;99.90
62555;DHT22;48610;52.144;8.624;2024-02-23T05:00:52;6.90;99.90
62555;DHT22;48610;52.144;8.624;2024-02-23T05:03:52;7.00;99.90
62555;DHT22;48610;52.144;8.624;2024-02-23T05:06:53;7.00;99.90
62555;DHT22;48610;52.144;8.624;2024-02-23T05:09:54;6.90;99.90
62555;DHT22;48610;52.144;8.624;2024-02-23T05:12:54;7.00;99.90
62555;DHT22;48610;52.144;8.624;2024-02-23T05:15:55;7.00;99.90
62555;DHT22;48610;52.144;8.624;2024-02-23T05:18:57;7.00;99.90
62555;DHT22;48610;52.144;8.624;2024-02-23T05:21:58;7.10;99.90
62555;DHT22;48610;52.144;8.624;2024-02-23T05:24:58;7.10;99.90
62555;DHT22;48610;52.144;8.624;2024-02-23T05:27:59;6.90;99.90
62555;DHT22;48610;52.144;8.624;2024-02-23T05:31:02;7.00;99.90
62555;DHT22;48610;52.144;8.624;2024-02-23T05:34:04;6.90;99.90
62555;DHT22;48610;52.144;8.624;2024-02-23T05:37:04;6.90;99.90
62555;DHT22;48610;52.144;8.624;2024-02-23T05:40:05;6.90;99.90
62555;DHT22;48610;52.144;8.624;2024-02-23T05:43:12;6.90;99.90
62555;DHT22;48610;52.144;8.624;2024-02-23T05:46:13;7.00;99.90
62555;DHT22;48610;52.144;8.624;2024-02-23T05:49:13;7.00;99.90
62555;DHT22;48610;52.144;8.624;2024-02-23T05:52:14;6.60;99.90
62555;DHT22;48610;52.144;8.624;2024-02-23T05:55:15;6.60;99.90
62555;DHT22;48610;52.144;8.624;2024-02-23T05:58:16;6.70;99.90
62555;DHT22;48610;52.144;8.624;2024-02-23T06:01:18;6.80;99.90
62555;DHT22;48610;52.144;8.624;2024-02-23T06:04:18;6.80;99.90
62555;DHT22;48610;52.144;8.624;2024-02-23T06:07:19;6.90;99.90
62555;DHT22;48610;52.144;8.624;2024-02-23T06:10:22;7.00;99.90
62555;DHT22;48610;52.144;8.624;2024-02-23T06:13:22;7.00;99.90
62555;DHT22;48610;52.144;8.624;2024-02-23T06:16:23;7.00;99.90
62555;DHT22;48610;52.144;8.624;2024-02-23T06:19:23;7.00;99.90
62555;DHT22;48610;52.144;8.624;2024-02-23T06:22:24;7.20;99.90
62555;DHT22;48610;52.144;8.624;2024-02-23T06:25:26;7.10;99.90
62555;DHT22;48610;52.144;8.624;2024-02-23T06:28:26;7.00;99.90
62555;DHT22;48610;52.144;8.624;2024-02-23T06:31:27;6.90;99.90
62555;DHT22;48610;52.144;8.624;2024-02-23T06:34:27;7.00;99.90
62555;DHT22;48610;52.144;8.624;2024-02-23T06:37:28;7.10;99.90
62555;DHT22;48610;52.144;8.624;2024-02-23T06:40:28;7.10;99.90
62555;DHT22;48610;52.144;8.624;2024-02-23T06:43:29;7.00;99.90
62555;DHT22;48610;52.144;8.624;2024-02-23T06:46:29;7.10;99.90
62555;DHT22;48610;52.144;8.624;2024-02-23T06:49:30;7.20;99.90
62555;DHT22;48610;52.144;8.624;2024-02-23T06:52:30;7.10;99.90
62555;DHT22;48610;52.144;8.624;2024-02-23T06:55:34;7.10;99.90
62555;DHT22;48610;52.144;8.624;2024-02-23T06:58:34;7.10;99.90
62555;DHT22;48610;52.144;8.624;2024-02-23T07:01:35;7.10;99.90
62555;DHT22;48610;52.144;8.624;2024-02-23T07:04:37;7.10;99.90
62555;DHT22;48610;52.144;8.624;2024-02-23T07:07:37;7.10;99.90
62555;DHT22;48610;52.144;8.624;2024-02-23T07:10:40;7.20;99.90
62555;DHT22;48610;52.144;8.624;2024-02-23T07:13:43;7.10;99.90
62555;DHT22;48610;52.144;8.624;2024-02-23T07:16:44;7.10;99.90
62555;DHT22;48610;52.144;8.624;2024-02-23T07:19:44;7.00;99.90
62555;DHT22;48610;52.144;8.624;2024-02-23T07:22:45;7.00;99.90
62555;DHT22;48610;52.144;8.624;2024-02-23T07:25:46;7.20;99.90
62555;DHT22;48610;52.144;8.624;2024-02-23T07:28:48;7.30;99.90
62555;DHT22;48610;52.144;8.624;2024-02-23T07:31:49;7.20;99.90
62555;DHT22;48610;52.144;8.624;2024-02-23T07:34:50;7.30;99.90
62555;DHT22;48610;52.144;8.624;2024-02-23T07:37:50;7.40;99.90
62555;DHT22;48610;52.144;8.624;2024-02-23T07:40:51;7.50;99.90
62555;DHT22;48610;52.144;8.624;2024-02-23T07:43:51;7.70;99.90
62555;DHT22;48610;52.144;8.624;2024-02-23T07:46:52;7.60;99.90
62555;DHT22;48610;52.144;8.624;2024-02-23T07:49:54;7.50;99.90
62555;DHT22;48610;52.144;8.624;2024-02-23T07:52:55;7.80;99.90
62555;DHT22;48610;52.144;8.624;2024-02-23T07:55:55;8.20;99.90
62555;DHT22;48610;52.144;8.624;2024-02-23T07:58:59;9.10;99.90
62555;DHT22;48610;52.144;8.624;2024-02-23T08:02:00;9.70;99.90
62555;DHT22;48610;52.144;8.624;2024-02-23T08:05:00;9.60;99.90
62555;DHT22;48610;52.144;8.624;2024-02-23T08:08:01;9.80;99.90
62555;DHT22;48610;52.144;8.624;2024-02-23T08:11:03;10.10;99.90
62555;DHT22;48610;52.144;8.624;2024-02-23T08:14:04;10.20;99.90
62555;DHT22;48610;52.144;8.624;2024-02-23T08:17:05;9.50;99.90
62555;DHT22;48610;52.144;8.624;2024-02-23T08:20:05;9.00;99.90
62555;DHT22;48610;52.144;8.624;2024-02-23T08:23:06;8.80;99.90
62555;DHT22;48610;52.144;8.624;2024-02-23T08:26:07;8.80;99.90
62555;DHT22;48610;52.144;8.624;2024-02-23T08:29:07;9.00;99.90
62555;DHT22;48610;52.144;8.624;2024-02-23T08:32:09;8.90;99.90
62555;DHT22;48610;52.144;8.624;2024-02-23T08:35:09;8.70;99.90
62555;DHT22;48610;52.144;8.624;2024-02-23T08:38:10;8.50;99.90
62555;DHT22;48610;52.144;8.624;2024-02-23T08:41:11;8.60;99.90
62555;DHT22;48610;52.144;8.624;2024-02-23T08:44:11;8.40;99.90
62555;DHT22;48610;52.144;8.624;2024-02-23T08:47:12;8.30;99.90
62555;DHT22;48610;52.144;8.624;2024-02-23T08:50:13;8.50;99.90
62555;DHT22;48610;52.144;8.624;2024-02-23T08:53:13;8.20;99.90
62555;DHT22;48610;52.144;8.624;2024-02-23T08:56:14;8.00;99.90
62555;DHT22;48610;52.144;8.624;2024-02-23T08:59:16;8.00;99.90
62555;DHT22;48610;52.144;8.624;2024-02-23T09:02:17;7.80;99.90
62555;DHT22;48610;52.144;8.624;2024-02-23T09:05:17;7.70;99.90
62555;DHT22;48610;52.144;8.624;2024-02-23T09:08:18;7.70;99.90
62555;DHT22;48610;52.144;8.624;2024-02-23T09:11:19;7.70;99.90
62555;DHT22;48610;52.144;8.624;2024-02-23T09:14:19;7.70;99.90
62555;DHT22;48610;52.144;8.624;2024-02-23T09:17:20;7.60;99.90
62555;DHT22;48610;52.144;8.624;2024-02-23T09:20:21;7.60;99.90
62555;DHT22;48610;52.144;8.624;2024-02-23T09:23:21;7.70;99.90
62555;DHT22;48610;52.144;8.624;2024-02-23T09:26:22;7.70;99.90
62555;DHT22;48610;52.144;8.624;2024-02-23T09:29:22;7.80;99.90
62555;DHT22;48610;52.144;8.624;2024-02-23T09:32:23;7.70;99.90
62555;DHT22;48610;52.144;8.624;2024-02-23T09:35:24;7.70;99.90
62555;DHT22;48610;52.144;8.624;2024-02-23T09:38:25;7.70;99.90
62555;DHT22;48610;52.144;8.624;2024-02-23T09:41:26;7.90;99.90
62555;DHT22;48610;52.144;8.624;2024-02-23T09:44:32;7.90;99.90
62555;DHT22;48610;52.144;8.624;2024-02-23T09:47:36;7.80;99.90
62555;DHT22;48610;52.144;8.624;2024-02-23T09:50:37;7.80;99.90
62555;DHT22;48610;52.144;8.624;2024-02-23T09:53:39;7.80;99.90
62555;DHT22;48610;52.144;8.624;2024-02-23T09:56:42;7.80;99.90
62555;DHT22;48610;52.144;8.624;2024-02-23T09:59:42;7.80;99.90
62555;DHT22;48610;52.144;8.624;2024-02-23T10:02:44;7.70;99.90
62555;DHT22;48610;52.144;8.624;2024-02-23T10:05:44;7.90;99.90
62555;DHT22;48610;52.144;8.624;2024-02-23T10:08:46;7.90;99.90
62555;DHT22;48610;52.144;8.624;2024-02-23T10:11:54;7.90;99.90
62555;DHT22;48610;52.144;8.624;2024-02-23T10:14:55;7.90;99.90
62555;DHT22;48610;52.144;8.624;2024-02-23T10:17:55;7.90;99.90
62555;DHT22;48610;52.144;8.624;2024-02-23T10:20:56;7.90;99.90
62555;DHT22;48610;52.144;8.624;2024-02-23T10:23:58;7.90;99.90
62555;DHT22;48610;52.144;8.624;2024-02-23T10:27:00;7.90;99.90
62555;DHT22;48610;52.144;8.624;2024-02-23T10:30:01;7.90;99.90
62555;DHT22;48610;52.144;8.624;2024-02-23T10:33:05;7.90;99.90
62555;DHT22;48610;52.144;8.624;2024-02-23T10:36:07;7.90;99.90
62555;DHT22;48610;52.144;8.624;2024-02-23T10:39:11;8.00;99.90
62555;DHT22;48610;52.144;8.624;2024-02-23T10:42:14;8.00;99.90
62555;DHT22;48610;52.144;8.624;2024-02-23T10:45:19;7.90;99.90
62555;DHT22;48610;52.144;8.624;2024-02-23T10:48:20;8.00;99.90
62555;DHT22;48610;52.144;8.624;2024-02-23T10:51:21;7.90;99.90
62555;DHT22;48610;52.144;8.624;2024-02-23T10:54:22;7.90;99.90
62555;DHT22;48610;52.144;8.624;2024-02-23T10:57:23;8.00;99.90
62555;DHT22;48610;52.144;8.624;2024-02-23T11:00:24;8.00;99.90
62555;DHT22;48610;52.144;8.624;2024-02-23T11:03:28;8.10;99.90
62555;DHT22;48610;52.144;8.624;2024-02-23T11:06:29;8.10;99.90
62555;DHT22;48610;52.144;8.624;2024-02-23T11:09:31;8.20;99.90
62555;DHT22;48610;52.144;8.624;2024-02-23T11:12:33;8.20;99.90
62555;DHT22;48610;52.144;8.624;2024-02-23T11:15:34;8.40;99.90
62555;DHT22;48610;52.144;8.624;2024-02-23T11:18:40;8.40;99.90
62555;DHT22;48610;52.144;8.624;2024-02-23T11:21:41;8.50;99.90
62555;DHT22;48610;52.144;8.624;2024-02-23T11:24:43;8.70;99.90
62555;DHT22;48610;52.144;8.624;2024-02-23T11:27:49;9.00;99.90
62555;DHT22;48610;52.144;8.624;2024-02-23T11:30:50;9.10;99.90
62555;DHT22;48610;52.144;8.624;2024-02-23T11:33:53;9.00;99.90
62555;DHT22;48610;52.144;8.624;2024-02-23T11:36:54;9.00;99.90
62555;DHT22;48610;52.144;8.624;2024-02-23T11:39:56;8.90;99.90
62555;DHT22;48610;52.144;8.624;2024-02-23T11:42:58;8.80;99.90
62555;DHT22;48610;52.144;8.624;2024-02-23T11:46:02;8.70;99.90
62555;DHT22;48610;52.144;8.624;2024-02-23T11:49:03;8.80;99.90
62555;DHT22;48610;52.144;8.624;2024-02-23T11:52:04;8.90;99.90
62555;DHT22;48610;52.144;8.624;2024-02-23T11:55:05;8.80;99.90
62555;DHT22;48610;52.144;8.624;2024-02-23T11:58:06;8.70;99.90
62555;DHT22;48610;52.144;8.624;2024-02-23T12:01:07;8.70;99.90
62555;DHT22;48610;52.144;8.624;2024-02-23T12:04:08;8.70;99.90
62555;DHT22;48610;52.144;8.624;2024-02-23T12:07:09;8.60;99.90
62555;DHT22;48610;52.144;8.624;2024-02-23T12:10:10;8.70;99.90
62555;DHT22;48610;52.144;8.624;2024-02-23T12:13:11;8.70;99.90
62555;DHT22;48610;52.144;8.624;2024-02-23T12:16:12;8.70;99.90
62555;DHT22;48610;52.144;8.624;2024-02-23T12:19:12;8.70;99.90
62555;DHT22;48610;52.144;8.624;2024-02-23T12:22:13;8.80;99.90
62555;DHT22;48610;52.144;8.624;2024-02-23T12:25:13;8.90;99.90
62555;DHT22;48610;52.144;8.624;2024-02-23T12:28:18;8.90;99.90
62555;DHT22;48610;52.144;8.624;2024-02-23T12:31:23;8.90;99.90
62555;DHT22;48610;52.144;8.624;2024-02-23T12:34:25;9.00;99.90
62555;DHT22;48610;52.144;8.624;2024-02-23T12:37:26;9.00;99.90
62555;DHT22;48610;52.144;8.624;2024-02-23T12:40:27;9.10;99.90
62555;DHT22;48610;52.144;8.624;2024-02-23T12:43:27;9.20;99.90
62555;DHT22;48610;52.144;8.624;2024-02-23T12:46:28;9.30;99.90
62555;DHT22;48610;52.144;8.624;2024-02-23T12:49:28;9.20;99.90
62555;DHT22;48610;52.144;8.624;2024-02-23T12:52:29;9.20;99.90
62555;DHT22;48610;52.144;8.624;2024-02-23T12:55:30;9.20;99.90
62555;DHT22;48610;52.144;8.624;2024-02-23T12:58:49;9.20;99.90
62555;DHT22;48610;52.144;8.624;2024-02-23T13:01:50;9.20;99.90
62555;DHT22;48610;52.144;8.624;2024-02-23T13:04:50;9.20;99.90
62555;DHT22;48610;52.144;8.624;2024-02-23T13:07:51;9.30;99.90
62555;DHT22;48610;52.144;8.624;2024-02-23T13:10:52;9.40;99.90
62555;DHT22;48610;52.144;8.624;2024-02-23T13:13:53;9.60;99.90
62555;DHT22;48610;52.144;8.624;2024-02-23T13:16:54;9.50;99.90
62555;DHT22;48610;52.144;8.624;2024-02-23T13:19:55;9.40;99.90
62555;DHT22;48610;52.144;8.624;2024-02-23T13:22:55;9.40;99.90
62555;DHT22;48610;52.144;8.624;2024-02-23T13:25:56;9.40;99.90
62555;DHT22;48610;52.144;8.624;2024-02-23T13:28:57;9.30;99.90
62555;DHT22;48610;52.144;8.624;2024-02-23T13:31:57;9.40;99.90
62555;DHT22;48610;52.144;8.624;2024-02-23T13:34:58;9.50;99.90
62555;DHT22;48610;52.144;8.624;2024-02-23T13:37:59;9.60;99.90
62555;DHT22;48610;52.144;8.624;2024-02-23T13:41:00;9.60;99.90
62555;DHT22;48610;52.144;8.624;2024-02-23T13:44:00;9.60;99.90
62555;DHT22;48610;52.144;8.624;2024-02-23T13:47:01;9.50;99.90
62555;DHT22;48610;52.144;8.624;2024-02-23T13:50:02;9.50;99.90
62555;DHT22;48610;52.144;8.624;2024-02-23T13:53:03;9.60;99.90
62555;DHT22;48610;52.144;8.624;2024-02-23T13:56:04;9.60;99.90
62555;DHT22;48610;52.144;8.624;2024-02-23T13:59:04;9.60;99.90
62555;DHT22;48610;52.144;8.624;2024-02-23T14:02:05;9.50;99.90
62555;DHT22;48610;52.144;8.624;2024-02-23T14:05:06;9.40;99.90
62555;DHT22;48610;52.144;8.624;2024-02-23T14:08:07;9.40;99.90
62555;DHT22;48610;52.144;8.624;2024-02-23T14:11:08;9.40;99.90
62555;DHT22;48610;52.144;8.624;2024-02-23T14:14:09;9.40;99.90
62555;DHT22;48610;52.144;8.624;2024-02-23T14:17:10;9.20;99.90
62555;DHT22;48610;52.144;8.624;2024-02-23T14:20:10;8.90;99.90
62555;DHT22;48610;52.144;8.624;2024-02-23T14:23:11;8.90;99.90
62555;DHT22;48610;52.144;8.624;2024-02-23T14:26:11;9.00;99.90
62555;DHT22;48610;52.144;8.624;2024-02-23T14:29:12;9.10;99.90
62555;DHT22;48610;52.144;8.624;2024-02-23T14:32:18;9.10;99.90
62555;DHT22;48610;52.144;8.624;2024-02-23T14:35:19;9.10;99.90
62555;DHT22;48610;52.144;8.624;2024-02-23T14:38:19;9.10;99.90
62555;DHT22;48610;52.144;8.624;2024-02-23T14:41:20;8.90;99.90
62555;DHT22;48610;52.144;8.624;2024-02-23T14:44:21;8.70;99.90
62555;DHT22;48610;52.144;8.624;2024-02-23T14:47:21;8.80;99.90
62555;DHT22;48610;52.144;8.624;2024-02-23T14:50:22;8.80;99.90
62555;DHT22;48610;52.144;8.624;2024-02-23T14:53:22;8.90;99.90
62555;DHT22;48610;52.144;8.624;2024-02-23T14:56:23;8.90;99.90
62555;DHT22;48610;52.144;8.624;2024-02-23T14:59:23;8.90;99.90
62555;DHT22;48610;52.144;8.624;2024-02-23T15:02:24;8.90;99.90
62555;DHT22;48610;52.144;8.624;2024-02-23T15:05:25;8.90;99.90
62555;DHT22;48610;52.144;8.624;2024-02-23T15:08:25;8.90;99.90
62555;DHT22;48610;52.144;8.624;2024-02-23T15:11:26;9.00;99.90
62555;DHT22;48610;52.144;8.624;2024-02-23T15:14:27;8.90;99.90
62555;DHT22;48610;52.144;8.624;2024-02-23T15:17:27;8.90;99.90
62555;DHT22;48610;52.144;8.624;2024-02-23T15:20:28;8.80;99.90
62555;DHT22;48610;52.144;8.624;2024-02-23T15:23:28;8.80;99.90
62555;DHT22;48610;52.144;8.624;2024-02-23T15:26:29;8.80;99.90
62555;DHT22;48610;52.144;8.624;2024-02-23T15:29:31;8.80;99.90
62555;DHT22;48610;52.144;8.624;2024-02-23T15:32:31;8.80;99.90
62555;DHT22;48610;52.144;8.624;2024-02-23T15:35:32;8.70;99.90
62555;DHT22;48610;52.144;8.624;2024-02-23T15:38:35;8.70;99.90
62555;DHT22;48610;52.144;8.624;2024-02-23T15:41:36;8.60;99.90
62555;DHT22;48610;52.144;8.624;2024-02-23T15:44:36;8.70;99.90
62555;DHT22;48610;52.144;8.624;2024-02-23T15:47:37;8.60;99.90
62555;DHT22;48610;52.144;8.624;2024-02-23T15:50:38;8.60;99.90
62555;DHT22;48610;52.144;8.624;2024-02-23T15:53:38;8.60;99.90
62555;DHT22;48610;52.144;8.624;2024-02-23T15:56:39;8.60;99.90
62555;DHT22;48610;52.144;8.624;2024-02-23T15:59:40;8.60;99.90
62555;DHT22;48610;52.144;8.624;2024-02-23T16:02:40;8.60;99.90
62555;DHT22;48610;52.144;8.624;2024-02-23T16:05:41;8.60;99.90
62555;DHT22;48610;52.144;8.624;2024-02-23T16:08:44;8.60;99.90
62555;DHT22;48610;52.144;8.624;2024-02-23T16:11:46;8.50;99.90
62555;DHT22;48610;52.144;8.624;2024-02-23T16:14:50;8.60;99.90
62555;DHT22;48610;52.144;8.624;2024-02-23T16:17:50;8.80;99.90
62555;DHT22;48610;52.144;8.624;2024-02-23T16:20:53;8.90;99.90
62555;DHT22;48610;52.144;8.624;2024-02-23T16:23:53;8.90;99.90
62555;DHT22;48610;52.144;8.624;2024-02-23T16:26:54;9.00;99.90
62555;DHT22;48610;52.144;8.624;2024-02-23T16:29:55;8.90;99.90
62555;DHT22;48610;52.144;8.624;2024-02-23T16:32:55;9.00;99.90
62555;DHT22;48610;52.144;8.624;2024-02-23T16:35:56;8.90;99.90
62555;DHT22;48610;52.144;8.624;2024-02-23T16:38:58;9.00;99.90
62555;DHT22;48610;52.144;8.624;2024-02-23T16:41:58;9.00;99.90
62555;DHT22;48610;52.144;8.624;2024-02-23T16:44:59;8.90;99.90
62555;DHT22;48610;52.144;8.624;2024-02-23T16:47:59;8.90;99.90
62555;DHT22;48610;52.144;8.624;2024-02-23T16:51:01;8.90;99.90
62555;DHT22;48610;52.144;8.624;2024-02-23T16:54:02;8.80;99.90
62555;DHT22;48610;52.144;8.624;2024-02-23T16:57:02;8.90;99.90
62555;DHT22;48610;52.144;8.624;2024-02-23T17:00:03;8.90;99.90
62555;DHT22;48610;52.144;8.624;2024-02-23T17:03:04;8.80;99.90
62555;DHT22;48610;52.144;8.624;2024-02-23T17:06:05;8.80;99.90
62555;DHT22;48610;52.144;8.624;2024-02-23T17:09:05;8.90;99.90
62555;DHT22;48610;52.144;8.624;2024-02-23T17:12:10;8.90;99.90
62555;DHT22;48610;52.144;8.624;2024-02-23T17:15:10;8.90;99.90
62555;DHT22;48610;52.144;8.624;2024-02-23T17:18:11;8.90;99.90
62555;DHT22;48610;52.144;8.624;2024-02-23T17:21:11;8.80;99.90
62555;DHT22;48610;52.144;8.624;2024-02-23T17:24:13;8.80;99.90
62555;DHT22;48610;52.144;8.624;2024-02-23T17:27:13;8.80;99.90
62555;DHT22;48610;52.144;8.624;2024-02-23T17:30:14;8.70;99.90
62555;DHT22;48610;52.144;8.624;2024-02-23T17:33:14;8.70;99.90
62555;DHT22;48610;52.144;8.624;2024-02-23T17:36:16;8.80;99.90
62555;DHT22;48610;52.144;8.624;2024-02-23T17:39:16;8.70;99.90
62555;DHT22;48610;52.144;8.624;2024-02-23T17:42:17;8.80;99.90
62555;DHT22;48610;52.144;8.624;2024-02-23T17:45:17;8.90;99.90
62555;DHT22;48610;52.144;8.624;2024-02-23T17:48:18;9.10;99.90
62555;DHT22;48610;52.144;8.624;2024-02-23T17:51:18;9.30;99.90
62555;DHT22;48610;52.144;8.624;2024-02-23T17:54:19;9.50;99.90
62555;DHT22;48610;52.144;8.624;2024-02-23T17:57:19;9.60;99.90
62555;DHT22;48610;52.144;8.624;2024-02-23T18:00:21;9.80;99.90
62555;DHT22;48610;52.144;8.624;2024-02-23T18:03:22;9.90;99.90
62555;DHT22;48610;52.144;8.624;2024-02-23T18:06:22;9.90;99.90
62555;DHT22;48610;52.144;8.624;2024-02-23T18:09:24;9.60;99.90
62555;DHT22;48610;52.144;8.624;2024-02-23T18:12:24;9.50;99.90
62555;DHT22;48610;52.144;8.624;2024-02-23T18:15:25;9.40;99.90
62555;DHT22;48610;52.144;8.624;2024-02-23T18:18:26;9.10;99.90
62555;DHT22;48610;52.144;8.624;2024-02-23T18:21:32;8.90;99.90
62555;DHT22;48610;52.144;8.624;2024-02-23T18:24:33;8.80;99.90
62555;DHT22;48610;52.144;8.624;2024-02-23T18:27:33;9.00;99.90
62555;DHT22;48610;52.144;8.624;2024-02-23T18:30:34;8.90;99.90
62555;DHT22;48610;52.144;8.624;2024-02-23T18:33:35;8.80;99.90
62555;DHT22;48610;52.144;8.624;2024-02-23T18:36:35;8.70;99.90
62555;DHT22;48610;52.144;8.624;2024-02-23T18:39:36;8.70;99.90
62555;DHT22;48610;52.144;8.624;2024-02-23T18:42:37;8.80;99.90
62555;DHT22;48610;52.144;8.624;2024-02-23T18:45:37;8.90;99.90
62555;DHT22;48610;52.144;8.624;2024-02-23T18:48:39;8.80;99.90
62555;DHT22;48610;52.144;8.624;2024-02-23T18:51:40;8.70;99.90
62555;DHT22;48610;52.144;8.624;2024-02-23T18:54:41;8.60;99.90
62555;DHT22;48610;52.144;8.624;2024-02-23T18:57:41;8.60;99.90
62555;DHT22;48610;52.144;8.624;2024-02-23T19:00:42;8.50;99.90
62555;DHT22;48610;52.144;8.624;2024-02-23T19:03:43;8.40;99.90
62555;DHT22;48610;52.144;8.624;2024-02-23T19:06:43;8.40;99.90
62555;DHT22;48610;52.144;8.624;2024-02-23T19:09:44;8.40;99.90
62555;DHT22;48610;52.144;8.624;2024-02-23T19:12:44;8.40;99.90
62555;DHT22;48610;52.144;8.624;2024-02-23T19:15:45;8.40;99.90
62555;DHT22;48610;52.144;8.624;2024-02-23T19:18:46;8.40;99.90
62555;DHT22;48610;52.144;8.624;2024-02-23T19:21:47;8.50;99.90